createdAt,value
2019-04-04T00:02:32.112Z,11.60
2019-04-04T00:05:37.053Z,10.47
2019-04-04T00:08:42.005Z,11.23
2019-04-04T00:11:46.932Z,10.90
2019-04-04T00:14:52.044Z,11.23
2019-04-04T00:17:56.888Z,10.37
2019-04-04T00:21:02.800Z,10.00
2019-04-04T00:24:09.130Z,11.23
2019-04-04T00:27:14.687Z,10.80
2019-04-04T00:30:19.685Z,12.17
2019-04-04T00:33:25.728Z,10.73
2019-04-04T00:36:33.894Z,11.63
2019-04-04T00:39:39.883Z,11.27
2019-04-04T00:42:45.927Z,11.80
2019-04-04T00:45:51.393Z,10.80
2019-04-04T00:48:56.165Z,11.83
2019-04-04T00:52:01.188Z,11.43
2019-04-04T00:55:06.556Z,11.10
2019-04-04T00:58:11.582Z,12.77
2019-04-04T01:01:16.788Z,11.13
2019-04-04T01:04:21.869Z,10.40
2019-04-04T01:07:26.842Z,10.93
2019-04-04T01:14:47.661Z,11.00
2019-04-04T01:17:53.143Z,12.50
2019-04-04T01:20:58.372Z,11.80
2019-04-04T01:24:16.132Z,11.87
2019-04-04T01:27:21.335Z,10.80
2019-04-04T01:30:26.652Z,11.73
2019-04-04T01:33:31.645Z,11.40
2019-04-04T01:36:36.731Z,11.83
2019-04-04T01:39:41.691Z,11.43
2019-04-04T01:42:46.819Z,12.47
2019-04-04T01:45:52.104Z,10.30
2019-04-04T01:48:57.039Z,12.70
2019-04-04T01:52:01.979Z,12.67
2019-04-04T01:55:07.004Z,10.90
2019-04-04T01:58:12.149Z,12.10
2019-04-04T02:01:17.137Z,12.07
2019-04-04T02:04:22.958Z,11.23
2019-04-04T02:07:29.752Z,11.50
2019-04-04T02:10:35.426Z,12.80
2019-04-04T02:13:40.894Z,11.27
2019-04-04T02:16:51.010Z,12.50
2019-04-04T02:19:55.589Z,11.37
2019-04-04T02:23:01.456Z,11.20
2019-04-04T02:26:06.996Z,12.10
2019-04-04T02:29:11.970Z,14.43
2019-04-04T02:32:18.535Z,12.30
2019-04-04T02:35:23.517Z,12.37
2019-04-04T02:38:28.803Z,12.47
2019-04-04T02:41:33.800Z,12.43
2019-04-04T02:44:38.873Z,12.40
2019-04-04T02:47:43.831Z,13.90
2019-04-04T02:50:49.158Z,14.47
2019-04-04T02:53:54.313Z,15.70
2019-04-04T02:56:59.244Z,15.57
2019-04-04T03:00:04.961Z,15.27
2019-04-04T03:03:09.946Z,15.00
2019-04-04T03:06:15.141Z,17.20
2019-04-04T03:09:20.324Z,15.17
2019-04-04T03:12:26.299Z,15.23
2019-04-04T03:15:31.985Z,14.90
2019-04-04T03:18:37.981Z,14.93
2019-04-04T03:21:43.267Z,15.73
2019-04-04T03:24:48.201Z,14.20
2019-04-04T03:27:53.050Z,13.97
2019-04-04T03:31:02.407Z,14.60
2019-04-04T03:34:11.495Z,14.30
2019-04-04T03:37:12.439Z,13.70
2019-04-04T03:40:17.497Z,12.00
2019-04-04T03:43:22.533Z,14.20
2019-04-04T03:46:27.685Z,13.10
2019-04-04T03:49:32.608Z,12.70
2019-04-04T03:52:37.500Z,13.23
2019-04-04T03:55:42.593Z,13.93
2019-04-04T03:58:47.828Z,13.10
2019-04-04T04:01:53.505Z,13.47
2019-04-04T04:05:01.003Z,12.77
2019-04-04T04:08:05.106Z,13.10
2019-04-04T04:11:10.159Z,13.17
2019-04-04T04:14:15.022Z,13.70
2019-04-04T04:17:20.045Z,12.83
2019-04-04T04:20:25.211Z,12.97
2019-04-04T04:23:30.399Z,13.93
2019-04-04T04:26:35.294Z,14.70
2019-04-04T04:29:40.492Z,12.93
2019-04-04T04:32:45.419Z,13.83
2019-04-04T04:35:50.525Z,13.00
2019-04-04T04:38:58.783Z,13.60
2019-04-04T04:42:02.368Z,12.60
2019-04-04T04:45:11.068Z,14.20
2019-04-04T04:48:14.003Z,12.97
2019-04-04T04:51:19.034Z,13.60
2019-04-04T04:54:24.155Z,13.67
2019-04-04T04:57:30.287Z,12.90
2019-04-04T05:00:35.360Z,12.53
2019-04-04T05:03:40.626Z,14.20
2019-04-04T05:06:45.558Z,13.00
2019-04-04T05:09:50.411Z,14.40
2019-04-04T05:12:55.526Z,12.50
2019-04-04T05:16:02.079Z,13.10
2019-04-04T05:19:07.249Z,14.87
2019-04-04T05:22:12.388Z,13.10
2019-04-04T05:25:17.311Z,13.17
2019-04-04T05:28:22.296Z,14.77
2019-04-04T05:31:27.501Z,12.83
2019-04-04T05:34:32.352Z,13.30
2019-04-04T05:37:38.290Z,13.17
2019-04-04T05:40:44.092Z,13.67
2019-04-04T05:43:48.934Z,13.63
2019-04-04T05:46:54.270Z,14.40
2019-04-04T05:49:59.176Z,12.83
2019-04-04T05:53:04.970Z,14.83
2019-04-04T05:56:09.981Z,14.70
2019-04-04T05:59:14.850Z,15.30
2019-04-04T06:02:19.806Z,13.87
2019-04-04T06:05:26.886Z,15.50
2019-04-04T06:08:31.564Z,12.80
2019-04-04T06:11:36.693Z,13.83
2019-04-04T06:14:41.875Z,14.43
2019-04-04T06:17:46.988Z,14.90
2019-04-04T06:20:51.932Z,14.13
2019-04-04T06:23:57.039Z,17.07
2019-04-04T06:27:02.284Z,16.90
2019-04-04T06:30:07.556Z,16.60
2019-04-04T06:33:12.450Z,16.97
2019-04-04T06:36:17.912Z,14.27
2019-04-04T06:39:25.133Z,11.53
2019-04-04T06:42:29.767Z,13.40
2019-04-04T06:45:35.204Z,13.60
2019-04-04T06:48:40.168Z,12.30
2019-04-04T06:51:46.455Z,10.90
2019-04-04T06:54:51.432Z,12.93
2019-04-04T06:57:56.420Z,12.30
2019-04-04T07:01:01.405Z,12.10
2019-04-04T07:04:06.381Z,13.47
2019-04-04T07:07:12.773Z,12.07
2019-04-04T07:10:20.920Z,11.70
2019-04-04T07:13:28.083Z,12.97
2019-04-04T07:16:31.542Z,13.13
2019-04-04T07:19:36.367Z,13.40
2019-04-04T07:22:41.383Z,13.07
2019-04-04T07:25:46.349Z,13.10
2019-04-04T07:28:53.882Z,13.37
2019-04-04T07:31:57.870Z,13.60
2019-04-04T07:35:02.912Z,13.57
2019-04-04T07:38:08.058Z,12.90
2019-04-04T07:41:14.761Z,13.07
2019-04-04T07:44:21.170Z,13.27
2019-04-04T07:47:25.981Z,13.53
2019-04-04T07:50:30.965Z,13.80
2019-04-04T07:53:36.450Z,15.00
2019-04-04T07:56:43.476Z,13.17
2019-04-04T07:59:48.697Z,14.20
2019-04-04T08:02:53.773Z,13.10
2019-04-04T08:05:58.948Z,14.13
2019-04-04T08:09:06.542Z,15.50
2019-04-04T08:12:11.402Z,14.57
2019-04-04T08:15:16.313Z,13.17
2019-04-04T08:18:21.448Z,13.30
2019-04-04T08:21:26.591Z,12.90
2019-04-04T08:24:31.876Z,13.50
2019-04-04T08:27:36.834Z,13.50
2019-04-04T08:30:41.749Z,13.53
2019-04-04T08:33:46.858Z,12.80
2019-04-04T08:36:52.054Z,11.63
2019-04-04T08:39:57.053Z,12.37
2019-04-04T08:43:02.190Z,12.83
2019-04-04T08:46:07.205Z,13.10
2019-04-04T08:49:12.431Z,13.40
2019-04-04T08:52:20.659Z,13.67
2019-04-04T08:55:23.953Z,14.17
2019-04-04T08:58:29.096Z,12.97
2019-04-04T09:01:34.064Z,11.33
2019-04-04T09:04:39.102Z,11.60
2019-04-04T09:07:44.027Z,12.20
2019-04-04T09:10:48.964Z,12.87
2019-04-04T09:13:53.979Z,12.13
2019-04-04T09:16:59.144Z,10.83
2019-04-04T09:20:04.473Z,10.93
2019-04-04T09:23:09.430Z,11.30
2019-04-04T09:26:14.521Z,11.20
2019-04-04T09:29:19.509Z,12.20
2019-04-04T09:32:24.326Z,12.50
2019-04-04T09:35:29.305Z,10.40
2019-04-04T09:38:34.295Z,11.60
2019-04-04T09:41:39.574Z,10.03
2019-04-04T09:44:44.476Z,9.93
2019-04-04T09:47:49.573Z,9.10
2019-04-04T09:50:54.433Z,10.50
2019-04-04T09:53:59.473Z,10.27
2019-04-04T09:57:04.651Z,10.90
2019-04-04T10:00:12.931Z,9.10
2019-04-04T10:03:17.927Z,9.23
2019-04-04T10:06:22.996Z,8.73
2019-04-04T10:09:27.968Z,8.40
2019-04-04T10:12:33.608Z,8.47
2019-04-04T10:15:38.615Z,8.43
2019-04-04T10:18:43.720Z,9.07
2019-04-04T10:21:48.959Z,8.77
2019-04-04T10:24:53.918Z,9.83
2019-04-04T10:27:59.038Z,8.83
2019-04-04T10:31:04.069Z,9.10
2019-04-04T10:34:09.062Z,9.20
2019-04-04T10:37:13.761Z,8.63
2019-04-04T10:40:18.691Z,8.40
2019-04-04T10:43:24.835Z,9.00
2019-04-04T10:46:29.630Z,8.10
2019-04-04T10:49:34.548Z,7.83
2019-04-04T10:52:39.535Z,8.07
2019-04-04T10:55:44.490Z,8.00
2019-04-04T10:58:49.611Z,8.97
2019-04-04T11:01:54.671Z,8.30
2019-04-04T11:04:59.894Z,9.03
2019-04-04T11:08:05.005Z,7.90
2019-04-04T11:11:09.867Z,8.30
2019-04-04T11:14:14.840Z,8.73
2019-04-04T11:17:19.868Z,9.80
2019-04-04T11:20:24.776Z,11.10
2019-04-04T11:23:29.759Z,10.60
2019-04-04T11:26:34.619Z,10.33
2019-04-04T11:29:39.546Z,10.37
2019-04-04T11:32:44.486Z,10.80
2019-04-04T11:35:49.467Z,11.67
2019-04-04T11:38:54.553Z,11.00
2019-04-04T11:41:59.544Z,10.23
2019-04-04T11:45:04.942Z,10.10
2019-04-04T11:48:10.276Z,10.67
2019-04-04T11:51:15.507Z,8.80
2019-04-04T11:54:20.460Z,7.90
2019-04-04T11:57:25.314Z,7.60
2019-04-04T12:00:33.187Z,7.53
2019-04-04T12:03:38.217Z,7.20
2019-04-04T12:06:43.565Z,8.97
2019-04-04T12:09:48.791Z,8.43
2019-04-04T12:12:53.767Z,7.73
2019-04-04T12:15:58.661Z,8.73
2019-04-04T12:19:03.572Z,9.10
2019-04-04T12:22:11.566Z,8.70
2019-04-04T12:25:15.531Z,9.13
2019-04-04T12:28:20.536Z,8.83
2019-04-04T12:31:25.559Z,8.70
2019-04-04T12:34:30.522Z,9.60
2019-04-04T12:37:35.589Z,8.37
2019-04-04T12:40:40.629Z,9.17
2019-04-04T12:43:46.018Z,9.17
2019-04-04T12:46:51.063Z,8.97
2019-04-04T12:49:56.899Z,8.78
2019-04-04T12:53:02.133Z,9.90
2019-04-04T12:56:07.247Z,8.83
2019-04-04T12:59:12.621Z,10.37
2019-04-04T13:02:17.601Z,10.70
2019-04-04T13:05:22.762Z,10.07
2019-04-04T13:08:30.505Z,9.63
2019-04-04T13:11:34.649Z,8.93
2019-04-04T13:14:40.943Z,8.97
2019-04-04T13:17:46.075Z,9.23
2019-04-04T13:20:51.385Z,9.90
2019-04-04T13:23:56.496Z,9.43
2019-04-04T13:27:01.478Z,10.13
2019-04-04T13:30:08.909Z,11.03
2019-04-04T13:33:14.989Z,10.80
2019-04-04T13:36:20.077Z,10.23
2019-04-04T13:39:25.121Z,9.93
2019-04-04T13:42:30.689Z,10.47
2019-04-04T13:45:36.081Z,10.77
2019-04-04T13:48:43.092Z,10.17
2019-04-04T13:51:48.129Z,9.50
2019-04-04T13:54:55.680Z,10.40
2019-04-04T13:57:59.813Z,10.23
2019-04-04T14:01:04.961Z,10.03
2019-04-04T14:04:10.021Z,9.07
2019-04-04T14:07:15.318Z,10.17
2019-04-04T14:10:20.330Z,9.67
2019-04-04T14:13:26.313Z,9.87
2019-04-04T14:16:31.958Z,8.97
2019-04-04T14:19:36.994Z,8.40
2019-04-04T14:22:42.373Z,9.90
2019-04-04T14:25:47.402Z,8.67
2019-04-04T14:28:52.429Z,9.00
2019-04-04T14:32:00.041Z,8.50
2019-04-04T14:35:06.053Z,8.50
2019-04-04T14:38:11.099Z,9.07
2019-04-04T14:41:17.631Z,7.80
2019-04-04T14:44:23.055Z,7.40
2019-04-04T14:47:28.208Z,7.90
2019-04-04T14:50:33.292Z,7.00
2019-04-04T14:53:38.718Z,6.87
2019-04-04T14:56:43.978Z,7.60
2019-04-04T14:59:49.067Z,6.40
2019-04-04T15:02:54.163Z,6.53
2019-04-04T15:05:59.107Z,6.90
2019-04-04T15:09:05.895Z,6.57
2019-04-04T15:12:10.862Z,7.33
2019-04-04T15:15:15.878Z,6.87
2019-04-04T15:18:20.896Z,6.83
2019-04-04T15:21:25.993Z,6.13
2019-04-04T15:24:31.128Z,7.93
2019-04-04T15:27:36.109Z,6.37
2019-04-04T15:30:41.159Z,6.60
2019-04-04T15:33:46.370Z,6.53
2019-04-04T15:36:51.667Z,6.63
2019-04-04T15:39:56.551Z,5.90
2019-04-04T15:43:01.580Z,6.47
2019-04-04T15:46:06.796Z,6.50
2019-04-04T15:49:12.614Z,7.00
2019-04-04T15:52:17.770Z,6.77
2019-04-04T15:55:22.718Z,6.47
2019-04-04T15:58:27.841Z,6.83
2019-04-04T16:01:32.952Z,6.50
2019-04-04T16:04:38.301Z,6.30
2019-04-04T16:07:43.391Z,5.93
2019-04-04T16:10:48.348Z,5.73
2019-04-04T16:13:53.326Z,5.00
2019-04-04T16:16:58.097Z,5.40
2019-04-04T16:20:03.421Z,5.87
2019-04-04T16:23:08.431Z,5.57
2019-04-04T16:26:16.821Z,5.63
2019-04-04T16:29:21.861Z,5.50
2019-04-04T16:32:26.912Z,5.57
2019-04-04T16:35:32.094Z,5.70
2019-04-04T16:38:37.238Z,5.00
2019-04-04T16:41:42.212Z,4.90
2019-04-04T16:44:47.337Z,4.57
2019-04-04T16:47:53.417Z,4.97
2019-04-04T16:51:00.652Z,5.60
2019-04-04T16:54:07.354Z,5.27
2019-04-04T16:57:12.332Z,4.73
2019-04-04T17:00:20.937Z,4.93
2019-04-04T17:03:27.073Z,8.47
2019-04-04T17:06:32.374Z,6.40
2019-04-04T17:09:37.711Z,7.07
2019-04-04T17:12:42.602Z,5.77
2019-04-04T17:15:47.587Z,6.17
2019-04-04T17:18:52.866Z,7.87
2019-04-04T17:21:57.929Z,8.27
2019-04-04T17:25:03.574Z,6.60
2019-04-04T17:28:09.055Z,6.40
2019-04-04T17:31:15.753Z,6.00
2019-04-04T17:34:21.537Z,5.90
2019-04-04T17:37:26.766Z,6.07
2019-04-04T17:40:32.236Z,6.00
2019-04-04T17:43:37.213Z,6.30
2019-04-04T17:46:42.380Z,7.63
2019-04-04T17:49:47.338Z,8.10
2019-04-04T17:52:53.343Z,6.57
2019-04-04T17:55:59.724Z,7.80
2019-04-04T17:59:04.844Z,6.13
2019-04-04T18:02:10.322Z,7.07
2019-04-04T18:05:16.035Z,7.47
2019-04-04T18:08:21.082Z,7.30
2019-04-04T18:11:26.046Z,7.87
2019-04-04T18:14:30.919Z,8.30
2019-04-04T18:17:36.013Z,7.23
2019-04-04T18:20:41.184Z,7.97
2019-04-04T18:23:46.208Z,8.53
2019-04-04T18:26:51.562Z,7.90
2019-04-04T18:29:56.793Z,8.43
2019-04-04T18:33:02.390Z,7.67
2019-04-04T18:36:07.376Z,11.43
2019-04-04T18:39:12.711Z,10.40
2019-04-04T18:42:17.603Z,9.30
2019-04-04T18:45:22.693Z,9.20
2019-04-04T18:48:27.785Z,8.70
2019-04-04T18:51:32.864Z,8.40
2019-04-04T18:54:38.560Z,8.70
2019-04-04T18:57:43.552Z,7.97
2019-04-04T19:00:48.600Z,7.80
2019-04-04T19:03:53.704Z,6.87
2019-04-04T19:06:59.111Z,7.10
2019-04-04T19:10:04.294Z,6.90
2019-04-04T19:13:09.273Z,6.47
2019-04-04T19:16:14.680Z,6.73
2019-04-04T19:19:19.776Z,7.30
2019-04-04T19:22:24.909Z,7.30
2019-04-04T19:25:30.185Z,9.50
2019-04-04T19:28:36.481Z,8.50
2019-04-04T19:31:41.755Z,8.53
2019-04-04T19:34:47.163Z,8.50
2019-04-04T19:37:59.873Z,7.87
2019-04-04T19:40:59.447Z,9.40
2019-04-04T19:44:04.826Z,9.00
2019-04-04T19:47:10.184Z,9.40
2019-04-04T19:50:15.569Z,9.27
2019-04-04T19:53:20.866Z,8.70
2019-04-04T19:56:26.001Z,8.50
2019-04-04T19:59:31.136Z,8.07
2019-04-04T20:02:36.377Z,8.13
2019-04-04T20:05:44.369Z,8.10
2019-04-04T20:08:51.067Z,8.53
2019-04-04T20:11:55.377Z,9.87
2019-04-04T20:15:00.371Z,9.30
2019-04-04T20:18:05.833Z,9.63
2019-04-04T20:21:11.032Z,9.87
2019-04-04T20:24:16.125Z,9.03
2019-04-04T20:27:23.482Z,9.30
2019-04-04T20:30:39.228Z,8.83
2019-04-04T20:33:44.286Z,9.23
2019-04-04T20:36:49.378Z,9.60
2019-04-04T20:39:56.882Z,9.03
2019-04-04T20:43:02.028Z,10.03
2019-04-04T20:46:07.000Z,11.03
2019-04-04T20:49:12.577Z,9.93
2019-04-04T20:52:17.602Z,10.43
2019-04-04T20:55:22.731Z,9.00
2019-04-04T20:58:27.935Z,10.07
2019-04-04T21:01:32.994Z,10.33
2019-04-04T21:04:38.067Z,9.63
2019-04-04T21:07:43.061Z,9.57
2019-04-04T21:10:48.276Z,11.37
2019-04-04T21:13:56.288Z,11.60
2019-04-04T21:17:00.344Z,11.20
2019-04-04T21:20:05.788Z,10.87
2019-04-04T21:23:10.989Z,10.23
2019-04-04T21:26:16.209Z,11.17
2019-04-04T21:29:21.116Z,10.50
2019-04-04T21:32:26.173Z,11.37
2019-04-04T21:35:31.195Z,11.53
2019-04-04T21:38:36.649Z,12.33
2019-04-04T21:41:42.094Z,11.23
2019-04-04T21:44:47.176Z,11.97
2019-04-04T21:47:52.505Z,14.40
2019-04-04T21:50:57.626Z,12.40
2019-04-04T21:54:02.727Z,11.20
2019-04-04T21:57:07.729Z,10.97
2019-04-04T22:00:13.588Z,12.07
2019-04-04T22:03:18.684Z,10.57
2019-04-04T22:06:24.014Z,10.80
2019-04-04T22:09:29.049Z,12.87
2019-04-04T22:12:34.215Z,10.57
2019-04-04T22:15:39.251Z,10.97
2019-04-04T22:18:44.541Z,12.13
2019-04-04T22:21:49.436Z,11.27
2019-04-04T22:24:54.517Z,12.23
2019-04-04T22:27:59.516Z,11.23
2019-04-04T22:31:04.882Z,10.80
2019-04-04T22:34:09.735Z,12.60
2019-04-04T22:37:14.818Z,11.70
2019-04-04T22:40:19.898Z,13.10
2019-04-04T22:43:24.847Z,11.70
2019-04-04T22:46:30.152Z,12.27
2019-04-04T22:49:35.179Z,12.67
2019-04-04T22:52:40.159Z,11.27
2019-04-04T22:55:45.148Z,11.90
2019-04-04T22:58:50.155Z,10.97
2019-04-04T23:01:55.213Z,10.80
2019-04-04T23:05:00.197Z,12.57
2019-04-04T23:08:07.462Z,12.40
2019-04-04T23:11:11.904Z,11.00
2019-04-04T23:14:16.896Z,11.67
2019-04-04T23:17:22.597Z,10.47
2019-04-04T23:20:27.859Z,10.77
2019-04-04T23:23:32.964Z,10.53
2019-04-04T23:26:38.219Z,10.70
2019-04-04T23:29:43.316Z,10.13
2019-04-04T23:32:48.579Z,9.80
2019-04-04T23:35:54.039Z,11.07
2019-04-04T23:38:59.361Z,10.53
2019-04-04T23:42:04.796Z,10.40
2019-04-04T23:45:10.061Z,9.77
2019-04-04T23:48:15.005Z,13.40
2019-04-04T23:51:20.363Z,9.00
2019-04-04T23:54:25.549Z,10.13
2019-04-04T23:57:30.510Z,9.70
